TimeCDT,TemperatureF,Dew PointF,Humidity,Sea Level PressureIn,VisibilityMPH,Wind Direction,Wind SpeedMPH,Gust SpeedMPH,PrecipitationIn,Events,Conditions,WindDirDegrees,DateUTC
12:51 AM,66.0,60.1,81,30.09,10.0,ESE,11.5,-,N/A,,Scattered Clouds,120,2013-07-16 05:51:00
1:51 AM,64.9,59.0,81,30.08,10.0,SE,5.8,-,N/A,,Mostly Cloudy,130,2013-07-16 06:51:00
2:51 AM,63.0,60.1,90,30.08,10.0,Calm,Calm,-,N/A,,Partly Cloudy,0,2013-07-16 07:51:00
3:46 AM,64.4,60.8,88,30.17,10.0,ESE,3.5,-,N/A,,Mostly Cloudy,120,2013-07-16 08:46:00
3:51 AM,64.0,60.1,87,30.08,10.0,ESE,3.5,-,N/A,,Mostly Cloudy,120,2013-07-16 08:51:00
3:58 AM,64.4,60.8,88,30.17,10.0,Calm,Calm,-,N/A,,Overcast,0,2013-07-16 08:58:00
4:10 AM,64.4,60.8,88,30.17,10.0,Calm,Calm,-,N/A,,Mostly Cloudy,0,2013-07-16 09:10:00
4:32 AM,64.4,60.8,88,30.17,10.0,Calm,Calm,-,N/A,,Mostly Cloudy,0,2013-07-16 09:32:00
4:51 AM,64.0,60.1,87,30.08,10.0,ESE,4.6,-,N/A,,Overcast,110,2013-07-16 09:51:00
5:17 AM,64.4,60.8,88,30.18,10.0,Calm,Calm,-,N/A,,Overcast,0,2013-07-16 10:17:00
5:31 AM,64.4,60.8,88,30.17,10.0,NE,4.6,-,N/A,,Overcast,40,2013-07-16 10:31:00
5:51 AM,64.0,60.1,87,30.07,10.0,NE,3.5,-,0.00,Rain,Light Rain,50,2013-07-16 10:51:00
6:11 AM,62.6,60.8,94,30.18,10.0,NNE,4.6,-,0.00,,Overcast,20,2013-07-16 11:11:00
6:51 AM,62.1,61.0,96,30.10,4.0,ENE,3.5,-,0.05,Rain,Light Rain,70,2013-07-16 11:51:00
7:34 AM,62.6,62.6,100,30.19,2.0,NNE,9.2,-,0.16,Rain,Rain,30,2013-07-16 12:34:00
7:36 AM,62.6,62.6,100,30.19,1.8,NNE,8.1,-,0.17,Rain,Rain,30,2013-07-16 12:36:00
7:48 AM,62.6,62.6,100,30.19,2.5,NNE,8.1,-,0.18,Rain,Light Rain,30,2013-07-16 12:48:00
7:51 AM,63.0,62.1,97,30.10,3.0,NE,8.1,-,0.18,Rain,Light Rain,40,2013-07-16 12:51:00
8:00 AM,62.6,62.6,100,30.20,4.0,NE,10.4,-,0.00,Rain,Light Rain,40,2013-07-16 13:00:00
8:40 AM,62.6,62.6,100,30.21,2.5,NE,6.9,-,0.04,Rain,Light Rain,40,2013-07-16 13:40:00
8:47 AM,62.6,62.6,100,30.20,3.0,NNE,10.4,-,0.05,Rain,Light Rain,20,2013-07-16 13:47:00
8:51 AM,63.0,62.1,97,30.11,3.0,NNE,10.4,-,0.05,Rain,Light Rain,30,2013-07-16 13:51:00
9:00 AM,62.6,62.6,100,30.19,2.5,NE,10.4,-,0.02,Rain,Rain,40,2013-07-16 14:00:00
9:12 AM,62.6,62.6,100,30.19,3.0,NE,11.5,-,0.03,Rain,Light Rain,50,2013-07-16 14:12:00
9:25 AM,62.6,62.6,100,30.19,2.0,NE,11.5,18.4,0.03,Rain,Light Rain,50,2013-07-16 14:25:00
9:33 AM,62.6,62.6,100,30.19,3.0,ENE,10.4,-,0.04,Rain-Thunderstorm,Light Rain,60,2013-07-16 14:33:00
9:51 AM,64.0,63.0,96,30.11,4.0,NE,12.7,20.7,0.07,Rain,Rain,50,2013-07-16 14:51:00
9:55 AM,64.4,62.6,94,30.20,1.8,ENE,13.8,20.7,0.04,Rain,Heavy Rain,70,2013-07-16 14:55:00
10:37 AM,62.6,62.6,100,30.20,1.8,NE,15.0,-,0.34,Rain,Heavy Rain,40,2013-07-16 15:37:00
10:51 AM,63.0,61.0,93,30.11,1.2,NE,17.3,23.0,0.41,Rain,Heavy Rain,40,2013-07-16 15:51:00
10:59 AM,62.6,60.8,94,30.19,3.0,NNE,16.1,-,0.00,Rain,Light Rain,30,2013-07-16 15:59:00
11:11 AM,62.6,62.6,100,30.19,2.0,NNE,10.4,-,0.02,Rain,Light Rain,30,2013-07-16 16:11:00
11:24 AM,62.6,60.8,94,30.19,7.0,NNE,9.2,-,0.02,Rain,Light Rain,20,2013-07-16 16:24:00
11:51 AM,64.9,63.0,93,30.10,10.0,NE,3.5,-,0.02,,Overcast,40,2013-07-16 16:51:00
12:03 PM,71.6,64.4,78,30.18,10.0,SE,17.3,24.2,N/A,,Mostly Cloudy,140,2013-07-16 17:03:00
12:13 PM,71.6,64.4,78,30.18,10.0,SSE,18.4,31.1,N/A,,Scattered Clouds,150,2013-07-16 17:13:00
12:51 PM,71.1,63.0,75,30.10,10.0,SE,15.0,27.6,N/A,,Mostly Cloudy,140,2013-07-16 17:51:00
1:49 PM,73.4,62.6,69,30.19,10.0,SE,16.1,24.2,N/A,,Mostly Cloudy,140,2013-07-16 18:49:00
1:51 PM,73.0,63.0,71,30.10,10.0,SE,17.3,24.2,N/A,,Mostly Cloudy,140,2013-07-16 18:51:00
2:00 PM,71.6,62.6,73,30.19,10.0,SE,16.1,25.3,N/A,,Mostly Cloudy,130,2013-07-16 19:00:00
2:43 PM,73.4,62.6,69,30.20,10.0,SE,19.6,23.0,N/A,,Overcast,140,2013-07-16 19:43:00
2:51 PM,73.9,62.1,66,30.10,10.0,SSE,16.1,23.0,N/A,,Overcast,150,2013-07-16 19:51:00
3:25 PM,71.6,62.6,73,30.20,10.0,SE,18.4,25.3,N/A,,Overcast,140,2013-07-16 20:25:00
3:34 PM,71.6,62.6,73,30.20,10.0,SE,16.1,25.3,N/A,,Overcast,140,2013-07-16 20:34:00
3:51 PM,73.0,63.0,71,30.11,10.0,SSE,11.5,23.0,N/A,,Mostly Cloudy,150,2013-07-16 20:51:00
4:51 PM,73.9,63.0,68,30.13,10.0,SSE,9.2,20.7,N/A,,Scattered Clouds,150,2013-07-16 21:51:00
5:51 PM,73.9,61.0,64,30.13,10.0,SSE,11.5,-,N/A,,Partly Cloudy,150,2013-07-16 22:51:00
6:51 PM,70.0,63.0,78,30.15,10.0,SE,15.0,21.9,0.00,,Scattered Clouds,140,2013-07-16 23:51:00
7:51 PM,69.1,62.1,78,30.17,10.0,ESE,13.8,21.9,N/A,,Overcast,120,2013-07-17 00:51:00
8:51 PM,69.1,62.1,78,30.18,10.0,SE,12.7,18.4,N/A,,Scattered Clouds,140,2013-07-17 01:51:00
9:51 PM,68.0,62.1,81,30.20,10.0,SE,8.1,-,N/A,,Scattered Clouds,130,2013-07-17 02:51:00
10:51 PM,68.0,63.0,84,30.23,10.0,ESE,6.9,-,N/A,,Overcast,120,2013-07-17 03:51:00
11:19 PM,68.0,64.4,88,30.32,10.0,ESE,5.8,-,N/A,,Overcast,110,2013-07-17 04:19:00
11:43 PM,66.2,64.4,94,30.33,10.0,ESE,5.8,-,N/A,,Mostly Cloudy,110,2013-07-17 04:43:00
11:51 PM,68.0,64.0,87,30.25,10.0,East,4.6,-,N/A,,Mostly Cloudy,100,2013-07-17 04:51:00